createdAt,value
2018-07-15T00:01:56.260Z,77.71
2018-07-15T00:04:25.706Z,77.68
2018-07-15T00:06:55.131Z,77.68
2018-07-15T00:09:24.566Z,77.71
2018-07-15T00:11:53.977Z,78.07
2018-07-15T00:14:23.399Z,78.11
2018-07-15T00:16:53.418Z,77.78
2018-07-15T00:19:22.545Z,77.76
2018-07-15T00:21:52.174Z,78.12
2018-07-15T00:24:21.609Z,77.76
2018-07-15T00:26:51.047Z,77.57
2018-07-15T00:29:20.557Z,77.77
2018-07-15T00:31:50.007Z,78.05
2018-07-15T00:34:19.438Z,78.12
2018-07-15T00:36:48.916Z,78.13
2018-07-15T00:39:18.351Z,78.57
2018-07-15T00:41:48.296Z,78.65
2018-07-15T00:44:17.739Z,78.85
2018-07-15T00:46:47.178Z,79.02
2018-07-15T00:49:16.630Z,78.22
2018-07-15T00:51:47.322Z,77.93
2018-07-15T00:54:16.544Z,78.07
2018-07-15T00:56:46.021Z,78.63
2018-07-15T00:59:15.505Z,79.38
2018-07-15T01:01:44.941Z,78.89
2018-07-15T01:04:14.439Z,78.63
2018-07-15T01:06:43.974Z,78.97
2018-07-15T01:09:13.418Z,78.79
2018-07-15T01:11:42.875Z,79.28
2018-07-15T01:14:12.289Z,79.34
2018-07-15T01:16:42.080Z,79.91
2018-07-15T01:19:11.683Z,79.51
2018-07-15T01:21:41.120Z,79.55
2018-07-15T01:24:10.273Z,79.70
2018-07-15T01:26:39.746Z,80.28
2018-07-15T01:29:09.136Z,80.05
2018-07-15T01:31:38.835Z,80.04
2018-07-15T01:34:08.302Z,79.65
2018-07-15T01:36:37.832Z,80.13
2018-07-15T01:39:06.938Z,79.56
2018-07-15T01:41:36.414Z,79.46
2018-07-15T01:44:05.878Z,80.35
2018-07-15T01:46:35.574Z,80.43
2018-07-15T01:49:05.076Z,79.74
2018-07-15T01:51:34.509Z,79.60
2018-07-15T01:54:04.021Z,80.23
2018-07-15T01:56:33.467Z,79.83
2018-07-15T01:59:03.108Z,80.49
2018-07-15T02:01:32.546Z,80.56
2018-07-15T02:04:01.994Z,79.99
2018-07-15T02:06:31.171Z,80.46
2018-07-15T02:09:00.590Z,80.21
2018-07-15T02:11:30.035Z,80.52
2018-07-15T02:13:59.554Z,80.69
2018-07-15T02:16:28.983Z,80.84
2018-07-15T02:18:58.422Z,81.01
2018-07-15T02:21:27.606Z,81.12
2018-07-15T02:23:57.007Z,81.04
2018-07-15T02:26:26.418Z,80.66
2018-07-15T02:28:55.916Z,81.60
2018-07-15T02:31:25.527Z,81.49
2018-07-15T02:33:54.962Z,81.13
2018-07-15T02:36:24.401Z,81.39
2018-07-15T02:38:53.852Z,81.38
2018-07-15T02:41:23.366Z,81.49
2018-07-15T02:43:52.513Z,81.73
2018-07-15T02:46:21.966Z,81.50
2018-07-15T02:48:51.137Z,81.65
2018-07-15T02:51:20.598Z,82.32
2018-07-15T02:53:50.087Z,82.24
2018-07-15T02:56:20.083Z,82.16
2018-07-15T02:58:49.957Z,82.15
2018-07-15T03:01:19.659Z,82.45
2018-07-15T03:03:49.131Z,82.69
2018-07-15T03:06:18.521Z,82.54
2018-07-15T03:08:47.924Z,82.51
2018-07-15T03:11:17.447Z,81.86
2018-07-15T03:13:46.597Z,82.76
2018-07-15T03:16:16.085Z,82.88
2018-07-15T03:18:45.489Z,82.44
2018-07-15T03:21:14.935Z,83.01
2018-07-15T03:23:44.355Z,82.58
2018-07-15T03:26:13.753Z,82.91
2018-07-15T03:28:43.206Z,82.35
2018-07-15T03:31:12.621Z,82.44
2018-07-15T03:33:42.049Z,82.78
2018-07-15T03:36:11.568Z,83.03
2018-07-15T03:38:40.959Z,83.88
2018-07-15T03:41:10.410Z,83.31
2018-07-15T03:43:39.821Z,84.13
2018-07-15T03:46:09.823Z,83.89
2018-07-15T03:48:39.262Z,83.53
2018-07-15T03:51:08.722Z,83.72
2018-07-15T03:53:38.146Z,84.12
2018-07-15T03:56:07.544Z,83.40
2018-07-15T03:58:36.981Z,83.94
2018-07-15T04:01:06.466Z,83.66
2018-07-15T04:03:36.407Z,83.86
2018-07-15T04:06:05.885Z,84.13
2018-07-15T04:08:35.334Z,84.84
2018-07-15T04:11:04.798Z,84.41
2018-07-15T04:13:34.213Z,84.38
2018-07-15T04:16:03.673Z,84.33
2018-07-15T04:18:33.144Z,84.80
2018-07-15T04:21:02.607Z,84.43
2018-07-15T04:23:31.964Z,85.06
2018-07-15T04:26:01.418Z,84.29
2018-07-15T04:28:30.508Z,83.98
2018-07-15T04:30:59.951Z,84.90
2018-07-15T04:33:29.321Z,84.59
2018-07-15T04:35:58.417Z,84.81
2018-07-15T04:38:27.967Z,85.34
2018-07-15T04:40:57.428Z,84.81
2018-07-15T04:43:26.938Z,85.45
2018-07-15T04:45:56.366Z,85.40
2018-07-15T04:48:25.773Z,85.70
2018-07-15T04:50:55.197Z,85.00
2018-07-15T04:53:25.627Z,85.49
2018-07-15T04:55:55.221Z,84.83
2018-07-15T04:58:24.656Z,84.23
2018-07-15T05:00:54.689Z,84.67
2018-07-15T05:03:24.077Z,84.36
2018-07-15T05:05:53.516Z,84.29
2018-07-15T05:08:22.912Z,84.54
2018-07-15T05:10:52.307Z,84.68
2018-07-15T05:13:21.774Z,83.64
2018-07-15T05:15:51.237Z,83.64
2018-07-15T05:18:20.631Z,83.43
2018-07-15T05:20:50.684Z,83.47
2018-07-15T05:23:20.057Z,83.19
2018-07-15T05:25:49.475Z,83.61
2018-07-15T05:28:19.120Z,83.29
2018-07-15T05:30:48.537Z,82.55
2018-07-15T05:33:17.992Z,82.72
2018-07-15T05:35:47.425Z,82.92
2018-07-15T05:38:16.780Z,82.69
2018-07-15T05:40:46.252Z,83.14
2018-07-15T05:43:15.689Z,83.81
2018-07-15T05:45:45.100Z,84.30
2018-07-15T05:48:14.536Z,84.75
2018-07-15T05:50:45.382Z,84.09
2018-07-15T05:53:14.828Z,84.06
2018-07-15T05:55:44.270Z,84.69
2018-07-15T05:58:13.421Z,83.64
2018-07-15T06:00:42.812Z,84.45
2018-07-15T06:03:12.231Z,84.75
2018-07-15T06:05:41.648Z,85.52
2018-07-15T06:08:11.069Z,85.42
2018-07-15T06:10:40.535Z,87.25
2018-07-15T06:13:09.700Z,88.41
2018-07-15T06:15:38.930Z,90.33
2018-07-15T06:18:08.388Z,91.77
2018-07-15T06:20:37.855Z,93.58
2018-07-15T06:23:07.871Z,94.15
2018-07-15T06:25:37.359Z,95.28
2018-07-15T06:28:06.803Z,96.00
2018-07-15T06:30:36.321Z,98.51
2018-07-15T06:33:05.991Z,99.00
2018-07-15T06:35:35.402Z,98.16
2018-07-15T06:38:04.885Z,98.72
2018-07-15T06:40:34.394Z,98.74
2018-07-15T06:43:03.766Z,98.88
2018-07-15T06:45:32.966Z,98.72
2018-07-15T06:48:03.579Z,97.23
2018-07-15T06:50:33.024Z,96.72
2018-07-15T06:53:02.462Z,97.76
2018-07-15T06:55:32.210Z,97.99
2018-07-15T06:58:01.675Z,98.34
2018-07-15T07:00:31.123Z,99.35
2018-07-15T07:03:00.488Z,99.81
2018-07-15T07:05:29.911Z,99.06
2018-07-15T07:07:59.450Z,99.45
2018-07-15T07:10:29.474Z,99.26
2018-07-15T07:12:58.931Z,99.47
2018-07-15T07:15:28.363Z,100.00
2018-07-15T07:17:57.808Z,100.00
2018-07-15T07:20:27.338Z,100.00
2018-07-15T07:22:56.721Z,100.00
2018-07-15T07:25:26.210Z,100.00
2018-07-15T07:27:55.331Z,100.00
2018-07-15T07:30:24.772Z,100.00
2018-07-15T07:32:54.202Z,100.00
2018-07-15T07:35:23.696Z,100.00
2018-07-15T07:37:53.736Z,100.00
2018-07-15T07:40:23.178Z,100.00
2018-07-15T07:42:52.571Z,100.00
2018-07-15T07:45:22.752Z,100.00
2018-07-15T07:47:52.200Z,100.00
2018-07-15T07:50:21.685Z,100.00
2018-07-15T07:52:51.150Z,100.00
2018-07-15T07:55:20.647Z,100.00
2018-07-15T07:57:50.130Z,100.00
2018-07-15T08:00:20.112Z,100.00
2018-07-15T08:02:49.227Z,100.00
2018-07-15T08:05:18.708Z,100.00
2018-07-15T08:07:47.881Z,100.00
2018-07-15T08:10:17.291Z,100.00
2018-07-15T08:12:46.734Z,100.00
2018-07-15T08:15:16.273Z,100.00
2018-07-15T08:17:45.637Z,100.00
2018-07-15T08:20:15.070Z,100.00
2018-07-15T08:22:44.472Z,100.00
2018-07-15T08:25:13.915Z,100.00
2018-07-15T08:27:43.376Z,99.98
2018-07-15T08:30:29.485Z,98.92
2018-07-15T08:32:58.897Z,98.27
2018-07-15T08:35:28.316Z,98.15
2018-07-15T08:37:57.423Z,97.80
2018-07-15T08:40:26.865Z,97.75
2018-07-15T08:42:56.347Z,97.68
2018-07-15T08:45:25.836Z,98.37
2018-07-15T08:47:55.257Z,98.80
2018-07-15T08:50:25.348Z,97.51
2018-07-15T08:52:54.775Z,97.46
2018-07-15T08:55:24.241Z,94.87
2018-07-15T08:57:53.756Z,95.60
2018-07-15T09:00:23.271Z,97.23
2018-07-15T09:02:52.749Z,97.28
2018-07-15T09:05:24.225Z,98.43
2018-07-15T09:07:54.504Z,98.40
2018-07-15T09:10:26.025Z,98.97
2018-07-15T09:12:57.063Z,97.97
2018-07-15T09:15:27.531Z,97.94
2018-07-15T09:17:57.024Z,98.18
2018-07-15T09:20:26.713Z,98.11
2018-07-15T09:22:56.126Z,98.26
2018-07-15T09:25:25.587Z,96.01
2018-07-15T09:27:55.262Z,95.87
2018-07-15T09:30:24.779Z,96.40
2018-07-15T09:32:53.880Z,96.16
2018-07-15T09:35:23.316Z,96.82
2018-07-15T09:37:53.173Z,95.33
2018-07-15T09:40:22.645Z,95.46
2018-07-15T09:42:52.113Z,92.48
2018-07-15T09:45:22.186Z,92.05
2018-07-15T09:47:51.657Z,93.65
2018-07-15T09:50:21.112Z,94.11
2018-07-15T09:52:50.506Z,95.19
2018-07-15T09:55:19.974Z,91.30
2018-07-15T09:57:49.599Z,91.42
2018-07-15T10:00:24.310Z,90.96
2018-07-15T10:02:53.735Z,86.62
2018-07-15T10:05:23.209Z,87.04
2018-07-15T10:07:52.705Z,86.93
2018-07-15T10:10:22.210Z,85.25
2018-07-15T10:12:51.678Z,86.52
2018-07-15T10:15:21.132Z,89.31
2018-07-15T10:17:50.576Z,88.14
2018-07-15T10:20:20.006Z,88.11
2018-07-15T10:22:49.515Z,89.21
2018-07-15T10:25:18.976Z,87.99
2018-07-15T10:27:48.449Z,87.00
2018-07-15T10:30:17.883Z,82.15
2018-07-15T10:32:47.388Z,84.29
2018-07-15T10:35:16.854Z,84.07
2018-07-15T10:37:46.276Z,79.91
2018-07-15T10:40:15.730Z,77.80
2018-07-15T10:42:45.288Z,80.64
2018-07-15T10:45:14.691Z,81.17
2018-07-15T10:47:44.090Z,81.25
2018-07-15T10:50:13.586Z,79.12
2018-07-15T10:52:44.049Z,80.34
2018-07-15T10:55:13.496Z,80.25
2018-07-15T10:57:43.020Z,81.00
2018-07-15T11:00:12.509Z,81.34
2018-07-15T11:02:42.183Z,81.08
2018-07-15T11:05:11.664Z,79.44
2018-07-15T11:07:41.104Z,80.26
2018-07-15T11:10:10.608Z,78.86
2018-07-15T11:12:40.000Z,77.62
2018-07-15T11:15:09.450Z,77.37
2018-07-15T11:17:38.870Z,76.83
2018-07-15T11:20:08.024Z,76.42
2018-07-15T11:22:37.549Z,76.04
2018-07-15T11:25:07.173Z,78.93
2018-07-15T11:27:36.709Z,76.32
2018-07-15T11:30:06.512Z,75.74
2018-07-15T11:32:35.952Z,74.01
2018-07-15T11:35:05.477Z,72.61
2018-07-15T11:37:35.127Z,68.23
2018-07-15T11:40:04.636Z,70.74
2018-07-15T11:42:34.078Z,69.87
2018-07-15T11:45:03.469Z,70.16
2018-07-15T11:47:32.912Z,70.23
2018-07-15T11:50:02.385Z,70.04
2018-07-15T11:52:31.821Z,69.10
2018-07-15T11:55:01.497Z,71.56
2018-07-15T11:57:30.940Z,67.05
2018-07-15T12:00:00.325Z,71.52
2018-07-15T12:02:29.990Z,70.03
2018-07-15T12:04:59.433Z,67.24
2018-07-15T12:07:28.842Z,64.99
2018-07-15T12:09:58.292Z,64.40
2018-07-15T12:12:27.736Z,67.56
2018-07-15T12:14:57.310Z,63.98
2018-07-15T12:17:26.770Z,63.35
2018-07-15T12:19:56.192Z,64.68
2018-07-15T12:22:25.690Z,64.58
2018-07-15T12:24:55.106Z,63.72
2018-07-15T12:27:24.728Z,63.14
2018-07-15T12:29:54.794Z,62.13
2018-07-15T12:32:24.348Z,59.84
2018-07-15T12:34:53.829Z,63.26
2018-07-15T12:37:23.239Z,59.49
2018-07-15T12:39:52.735Z,56.78
2018-07-15T12:42:22.204Z,57.83
2018-07-15T12:44:51.979Z,58.00
2018-07-15T12:47:21.492Z,56.21
2018-07-15T12:49:50.976Z,58.29
2018-07-15T12:52:20.436Z,61.27
2018-07-15T12:54:49.923Z,59.45
2018-07-15T12:57:19.457Z,59.03
2018-07-15T12:59:48.913Z,58.17
2018-07-15T13:02:18.459Z,56.89
2018-07-15T13:04:47.629Z,57.48
2018-07-15T13:07:17.005Z,60.58
2018-07-15T13:09:46.448Z,58.37
2018-07-15T13:12:15.913Z,57.30
2018-07-15T13:14:45.368Z,57.87
2018-07-15T13:17:14.855Z,59.71
2018-07-15T13:19:44.280Z,60.81
2018-07-15T13:22:14.774Z,62.37
2018-07-15T13:24:44.919Z,61.68
2018-07-15T13:27:14.588Z,62.27
2018-07-15T13:29:44.046Z,58.88
2018-07-15T13:32:13.495Z,61.59
2018-07-15T13:34:42.912Z,60.55
2018-07-15T13:37:12.375Z,62.55
2018-07-15T13:39:41.506Z,62.97
2018-07-15T13:42:10.985Z,63.71
2018-07-15T13:44:40.476Z,63.91
2018-07-15T13:47:09.850Z,64.57
2018-07-15T13:49:39.304Z,61.38
2018-07-15T13:52:08.450Z,63.21
2018-07-15T13:54:37.943Z,62.53
2018-07-15T13:57:07.389Z,62.66
2018-07-15T13:59:36.916Z,65.22
2018-07-15T14:02:06.460Z,64.10
2018-07-15T14:04:35.914Z,65.10
2018-07-15T14:07:05.390Z,68.77
2018-07-15T14:09:34.851Z,67.04
2018-07-15T14:12:04.477Z,69.82
2018-07-15T14:14:34.013Z,71.29
2018-07-15T14:17:03.722Z,73.21
2018-07-15T14:19:33.154Z,75.47
2018-07-15T14:22:02.755Z,74.43
2018-07-15T14:24:32.250Z,75.93
2018-07-15T14:27:01.743Z,78.09
2018-07-15T14:29:31.177Z,80.53
2018-07-15T14:32:00.560Z,83.39
2018-07-15T14:34:32.792Z,85.32
2018-07-15T14:37:02.417Z,86.87
2018-07-15T14:39:37.942Z,87.10
2018-07-15T14:42:07.412Z,87.57
2018-07-15T14:44:38.541Z,88.58
2018-07-15T14:47:08.090Z,88.36
2018-07-15T14:49:37.608Z,88.24
2018-07-15T14:52:07.105Z,88.21
2018-07-15T14:54:36.218Z,89.36
2018-07-15T14:57:05.652Z,89.29
2018-07-15T14:59:35.069Z,88.85
2018-07-15T15:02:04.657Z,89.19
2018-07-15T15:04:34.038Z,89.45
2018-07-15T15:07:03.520Z,90.48
2018-07-15T15:09:32.617Z,89.61
2018-07-15T15:12:02.082Z,89.48
2018-07-15T15:14:31.528Z,89.74
2018-07-15T15:17:01.013Z,90.02
2018-07-15T15:19:30.463Z,90.42
2018-07-15T15:21:59.914Z,89.46
2018-07-15T15:24:29.351Z,91.73
2018-07-15T15:26:58.824Z,91.92
2018-07-15T15:29:28.254Z,92.24
2018-07-15T15:31:57.750Z,90.88
2018-07-15T15:34:27.238Z,91.04
2018-07-15T15:36:56.636Z,90.90
2018-07-15T15:39:26.082Z,91.26
2018-07-15T15:41:55.495Z,90.72
2018-07-15T15:44:26.026Z,89.65
2018-07-15T15:46:54.403Z,89.41
2018-07-15T15:49:23.882Z,90.36
2018-07-15T15:51:53.373Z,90.16
2018-07-15T15:54:22.979Z,89.46
2018-07-15T15:56:52.446Z,89.04
2018-07-15T15:59:21.883Z,84.98
2018-07-15T16:01:51.270Z,85.03
2018-07-15T16:04:20.660Z,88.41
2018-07-15T16:06:50.225Z,86.32
2018-07-15T16:09:19.721Z,85.49
2018-07-15T16:11:50.596Z,85.22
2018-07-15T16:14:19.774Z,87.56
2018-07-15T16:16:49.217Z,88.27
2018-07-15T16:19:18.700Z,89.42
2018-07-15T16:21:48.160Z,90.94
2018-07-15T16:24:17.768Z,91.81
2018-07-15T16:26:47.228Z,92.30
2018-07-15T16:29:16.713Z,93.54
2018-07-15T16:31:46.189Z,93.47
2018-07-15T16:34:16.753Z,94.11
2018-07-15T16:36:46.692Z,94.59
2018-07-15T16:39:15.849Z,94.97
2018-07-15T16:41:45.298Z,95.44
2018-07-15T16:44:14.669Z,96.63
2018-07-15T16:46:44.222Z,96.63
2018-07-15T16:49:13.648Z,96.79
2018-07-15T16:51:43.057Z,96.77
2018-07-15T16:54:13.042Z,97.26
2018-07-15T16:56:42.193Z,97.46
2018-07-15T16:59:11.618Z,97.16
2018-07-15T17:01:41.100Z,96.54
2018-07-15T17:04:10.530Z,97.24
2018-07-15T17:06:40.125Z,97.28
2018-07-15T17:09:09.568Z,98.18
2018-07-15T17:11:39.029Z,98.40
2018-07-15T17:14:08.497Z,97.83
2018-07-15T17:16:37.968Z,97.95
2018-07-15T17:19:07.134Z,97.66
2018-07-15T17:21:36.548Z,97.63
2018-07-15T17:24:06.075Z,96.89
2018-07-15T17:26:35.507Z,94.24
2018-07-15T17:29:04.950Z,93.22
2018-07-15T17:31:34.236Z,91.47
2018-07-15T17:34:03.639Z,94.60
2018-07-15T17:36:33.048Z,95.26
2018-07-15T17:39:02.512Z,96.94
2018-07-15T17:41:32.014Z,96.68
2018-07-15T17:44:01.494Z,96.69
2018-07-15T17:46:30.920Z,96.40
2018-07-15T17:49:00.426Z,96.24
2018-07-15T17:51:29.648Z,96.55
2018-07-15T17:53:59.049Z,97.09
2018-07-15T17:56:28.260Z,97.44
2018-07-15T17:58:57.770Z,97.50
2018-07-15T18:01:27.289Z,97.16
2018-07-15T18:03:56.688Z,97.70
2018-07-15T18:06:26.195Z,97.53
2018-07-15T18:08:55.596Z,97.62
2018-07-15T18:11:25.034Z,98.11
2018-07-15T18:13:54.988Z,97.62
2018-07-15T18:16:24.169Z,97.65
2018-07-15T18:18:53.624Z,97.56
2018-07-15T18:21:23.111Z,96.83
2018-07-15T18:23:52.543Z,96.48
2018-07-15T18:26:21.966Z,96.92
2018-07-15T18:28:51.377Z,97.15
2018-07-15T18:31:20.885Z,97.76
2018-07-15T18:33:50.910Z,96.82
2018-07-15T18:36:20.383Z,96.29
2018-07-15T18:38:49.806Z,96.94
2018-07-15T18:41:19.298Z,97.23
2018-07-15T18:43:48.685Z,96.92
2018-07-15T18:46:18.154Z,97.04
2018-07-15T18:48:48.429Z,97.09
2018-07-15T18:51:18.917Z,97.81
2018-07-15T18:53:48.458Z,98.09
2018-07-15T18:56:17.951Z,98.27
2018-07-15T18:58:47.393Z,99.04
2018-07-15T19:01:16.834Z,99.07
2018-07-15T19:03:46.304Z,98.46
2018-07-15T19:06:15.729Z,98.15
2018-07-15T19:08:45.193Z,97.71
2018-07-15T19:11:14.782Z,98.18
2018-07-15T19:13:44.393Z,98.03
2018-07-15T19:16:13.896Z,97.91
2018-07-15T19:18:43.402Z,98.12
2018-07-15T19:21:12.890Z,98.00
2018-07-15T19:23:42.098Z,97.79
2018-07-15T19:26:11.897Z,98.00
2018-07-15T19:28:41.359Z,97.35
2018-07-15T19:31:10.850Z,97.71
2018-07-15T19:33:41.501Z,97.16
2018-07-15T19:36:10.893Z,98.20
2018-07-15T19:38:40.307Z,97.94
2018-07-15T19:41:09.812Z,98.51
2018-07-15T19:43:39.276Z,98.83
2018-07-15T19:46:08.730Z,98.45
2018-07-15T19:48:38.256Z,98.33
2018-07-15T19:51:07.757Z,98.72
2018-07-15T19:53:37.240Z,98.95
2018-07-15T19:56:06.668Z,98.83
2018-07-15T19:58:36.705Z,98.57
2018-07-15T20:01:06.233Z,98.90
2018-07-15T20:03:35.568Z,98.58
2018-07-15T20:06:05.919Z,98.78
2018-07-15T20:08:35.459Z,98.46
2018-07-15T20:11:04.650Z,99.41
2018-07-15T20:13:34.642Z,98.94
2018-07-15T20:16:04.684Z,98.54
2018-07-15T20:18:34.269Z,98.64
2018-07-15T20:21:03.810Z,98.63
2018-07-15T20:23:32.994Z,99.53
2018-07-15T20:26:03.038Z,99.25
2018-07-15T20:28:32.203Z,98.85
2018-07-15T20:31:01.591Z,99.03
2018-07-15T20:33:31.079Z,98.85
2018-07-15T20:36:00.501Z,99.47
2018-07-15T20:38:33.176Z,99.21
2018-07-15T20:41:03.081Z,99.24
2018-07-15T20:43:32.581Z,99.41
2018-07-15T20:46:01.983Z,99.49
2018-07-15T20:48:31.396Z,99.56
2018-07-15T20:51:00.945Z,99.23
2018-07-15T20:53:30.399Z,99.90
2018-07-15T20:55:59.847Z,99.89
2018-07-15T20:58:29.291Z,100.00
2018-07-15T21:00:58.776Z,99.58
2018-07-15T21:03:28.230Z,99.25
2018-07-15T21:05:57.697Z,98.81
2018-07-15T21:08:26.879Z,99.12
2018-07-15T21:10:56.914Z,99.01
2018-07-15T21:13:26.124Z,98.82
2018-07-15T21:15:56.135Z,98.62
2018-07-15T21:18:25.636Z,98.37
2018-07-15T21:20:55.073Z,98.86
2018-07-15T21:23:24.492Z,98.83
2018-07-15T21:25:53.968Z,98.63
2018-07-15T21:28:23.523Z,98.73
2018-07-15T21:30:52.966Z,98.77
2018-07-15T21:33:22.515Z,98.88
2018-07-15T21:35:51.978Z,99.64
2018-07-15T21:38:21.420Z,99.70
2018-07-15T21:40:50.895Z,99.00
2018-07-15T21:43:20.351Z,98.86
2018-07-15T21:45:49.814Z,98.44
2018-07-15T21:48:19.201Z,98.66
2018-07-15T21:50:48.402Z,98.85
2018-07-15T21:53:17.833Z,98.23
2018-07-15T21:55:47.424Z,98.36
2018-07-15T21:58:16.577Z,98.84
2018-07-15T22:00:46.054Z,99.22
2018-07-15T22:03:15.467Z,98.64
2018-07-15T22:05:44.869Z,98.66
2018-07-15T22:08:31.240Z,98.88
2018-07-15T22:11:00.700Z,99.34
2018-07-15T22:13:30.150Z,99.95
2018-07-15T22:15:59.588Z,99.33
2018-07-15T22:18:29.066Z,100.00
2018-07-15T22:20:58.523Z,99.42
2018-07-15T22:23:28.202Z,99.39
2018-07-15T22:25:57.672Z,99.35
2018-07-15T22:28:27.054Z,99.30
2018-07-15T22:30:56.512Z,99.32
2018-07-15T22:33:25.961Z,99.35
2018-07-15T22:35:55.976Z,99.76
2018-07-15T22:38:25.410Z,99.82
2018-07-15T22:40:54.871Z,99.62
2018-07-15T22:43:24.284Z,99.78
2018-07-15T22:45:53.759Z,99.95
2018-07-15T22:48:23.319Z,99.71
2018-07-15T22:50:52.736Z,99.38
2018-07-15T22:53:22.151Z,98.90
2018-07-15T22:55:51.608Z,99.49
2018-07-15T22:58:20.996Z,99.67
2018-07-15T23:00:50.428Z,99.72
2018-07-15T23:03:20.451Z,99.36
2018-07-15T23:06:06.821Z,99.96
2018-07-15T23:08:36.237Z,99.04
2018-07-15T23:11:05.656Z,99.00
2018-07-15T23:13:35.058Z,99.99
2018-07-15T23:16:04.497Z,99.75
2018-07-15T23:18:33.934Z,99.22
2018-07-15T23:21:04.176Z,99.83
2018-07-15T23:23:33.631Z,99.83
2018-07-15T23:26:03.075Z,99.49
2018-07-15T23:28:32.571Z,98.87
2018-07-15T23:31:01.997Z,99.34
2018-07-15T23:33:31.441Z,98.95
2018-07-15T23:36:00.864Z,98.94
2018-07-15T23:38:30.309Z,99.59
2018-07-15T23:40:59.711Z,98.82
2018-07-15T23:43:29.155Z,99.41
2018-07-15T23:45:58.652Z,98.83
2018-07-15T23:48:27.914Z,98.55
2018-07-15T23:50:57.338Z,99.36
2018-07-15T23:53:27.374Z,99.17
2018-07-15T23:55:56.797Z,98.54
2018-07-15T23:58:26.187Z,98.67
